LIPX Airport Information

Runway Information
Runway 04 Length 10064 ft width 148 ft
Elevation 220 ft Threshold 189 ft Heading 46
Runway 22 Length 10064 ft Width 148 ft
Elevation 238 ft Threshold 1345 ft Heading 226
Airport Frequencies
Type APP Name GARDA APP Frequency 36.23 MHZ
Type APP Name GARDA APP Frequency 124.45 MHZ
Type GND Name GND Frequency 121.75 MHZ
Type INFO Name PADOVA INF Frequency 123.25 MHZ
Type TWR Name TWR Frequency 118.65 MHZ
Airport Navaids
Type VORTAC Name Villafranca Frequency 115800 KHZ
Type NDB Name Villafranca Frequency 355 KHZ
Airport Weather Information & NOTAM
ADDS - METARS form results

(2200 UTC 17 September 2021)
Data provider http://aviationweather.gov/metar/data/
 
METAR text: LIPX 172150Z 08005KT 9999 FEW050 20/17 Q1012
Conditions at: LIPX (VILLAFRANCA(CV/M, IT) observed 2150 UTC 17 September 2021
Temperature: 20.0°C (68°F)
Dewpoint: 17.0°C (63°F) [RH = 83%]
Pressure (altimeter): 29.88 inches Hg (1012.0 mb)
Winds: from the E (80 degrees) at 6 MPH (5 knots; 2.6 m/s)
Visibility: 6 or more miles (10+ km)
Ceiling: at least 12,000 feet AGL
Clouds: few clouds at 5000 feet AGL
Weather: no significant weather observed at this time

METAR text: LIPX 172120Z 09006KT 9999 FEW050 21/17 Q1012
Conditions at: LIPX (VILLAFRANCA(CV/M, IT) observed 2120 UTC 17 September 2021
Temperature: 21.0°C (70°F)
Dewpoint: 17.0°C (63°F) [RH = 78%]
Pressure (altimeter): 29.88 inches Hg (1012.0 mb)
Winds: from the E (90 degrees) at 7 MPH (6 knots; 3.1 m/s)
Visibility: 6 or more miles (10+ km)
Ceiling: at least 12,000 feet AGL
Clouds: few clouds at 5000 feet AGL
Weather: no significant weather observed at this time

Forecast for: LIPX (VILLAFRANCA(CV/M, IT)
Text: TAF LIPX 171700Z 1718/1818 VRB05KT 9999 SCT014
Forecast period: 1800 UTC 17 September 2021 to 1800 UTC 18 September 2021
Forecast type: FROM: standard forecast or significant change
Winds: variable direction winds at 6 MPH (5 knots; 2.6 m/s)
Visibility: 6 or more miles (10+ km)
Ceiling: at least 12,000 feet AGL
Clouds: scattered clouds at 1400 feet AGL
Weather: no significant weather forecast for this period
Text: TEMPO 1810/1818 TSRA
Forecast period: 1000 to 1800 UTC 18 September 2021
Forecast type: TEMPORARY: The following changes expected for less than half the time period
Visibility: missing
Ceiling: unknown
Clouds: missing
Weather: TSRA  (rain associated with thunderstorm(s))